Time;durP1;ratioP1;P1;durP2;ratioP2;P2;SDS_P1;SDS_P2;PMS_P1;PMS_P2;Temp;Humidity;BMP_temperature;BMP_pressure;BME280_temperature;BME280_humidity;BME280_pressure;Samples;Min_cycle;Max_cycle;Signal;HPM_P1;HPM_P2
2024/01/18 00:00:40;;;;;;;1999.90;999.90;;;;;;;;;;5078189;28;20051;-90
2024/01/18 00:03:07;;;;;;;1999.90;999.90;;;;;;;;;;5073915;28;20534;-88
2024/01/18 00:05:35;;;;;;;1999.90;999.90;;;;;;;;;;5079888;28;20508;-88
2024/01/18 00:08:02;;;;;;;1999.90;999.90;;;;;;;;;;5084039;28;20044;-87
2024/01/18 00:10:28;;;;;;;1999.90;999.90;;;;;;;;;;5079867;28;20147;-86
2024/01/18 00:12:55;;;;;;;1999.90;999.90;;;;;;;;;;5073984;28;20489;-86
2024/01/18 00:15:22;;;;;;;1999.90;999.90;;;;;;;;;;5069225;28;20510;-87
2024/01/18 00:17:48;;;;;;;1999.90;999.90;;;;;;;;;;5077622;28;20477;-86
2024/01/18 00:20:15;;;;;;;1999.90;999.90;;;;;;;;;;5078427;28;20051;-87
2024/01/18 00:22:43;;;;;;;1999.90;999.90;;;;;;;;;;5080384;28;20046;-87
2024/01/18 00:25:10;;;;;;;1999.90;999.90;;;;;;;;;;5089817;28;20107;-87
2024/01/18 00:27:36;;;;;;;1999.90;999.90;;;;;;;;;;5086021;28;20041;-90
2024/01/18 00:30:03;;;;;;;1999.90;999.90;;;;;;;;;;5079302;28;20044;-86
2024/01/18 00:32:30;;;;;;;1999.90;999.90;;;;;;;;;;5079274;28;20146;-88
2024/01/18 00:34:56;;;;;;;1999.90;999.90;;;;;;;;;;5079604;28;20056;-89
2024/01/18 00:37:24;;;;;;;1999.90;999.90;;;;;;;;;;5077638;28;20071;-89
2024/01/18 00:39:52;;;;;;;1999.90;999.90;;;;;;;;;;5054459;28;20045;-86
2024/01/18 00:42:18;;;;;;;1999.90;999.90;;;;;;;;;;5079984;28;20051;-88
2024/01/18 00:44:45;;;;;;;1999.90;999.90;;;;;;;;;;5073405;28;20059;-86
2024/01/18 00:47:11;;;;;;;1999.90;999.90;;;;;;;;;;5073446;28;20058;-86
2024/01/18 00:49:38;;;;;;;1999.90;999.90;;;;;;;;;;5076935;28;20059;-89
2024/01/18 00:52:05;;;;;;;1999.90;999.90;;;;;;;;;;5076772;28;20054;-88
2024/01/18 00:54:32;;;;;;;1999.90;999.90;;;;;;;;;;5073212;28;20085;-85
2024/01/18 00:56:59;;;;;;;1999.90;999.90;;;;;;;;;;5077307;28;20052;-86
2024/01/18 00:59:26;;;;;;;1999.90;999.90;;;;;;;;;;5081768;28;20060;-87
2024/01/18 01:01:53;;;;;;;1999.90;999.90;;;;;;;;;;5076606;28;20118;-87
2024/01/18 01:04:19;;;;;;;1999.90;999.90;;;;;;;;;;5081659;28;20504;-86
2024/01/18 01:06:46;;;;;;;1999.90;999.90;;;;;;;;;;5071514;28;20478;-88
2024/01/18 01:09:12;;;;;;;1999.90;999.90;;;;;;;;;;5085374;28;20218;-87
2024/01/18 01:11:39;;;;;;;1999.90;999.90;;;;;;;;;;5076035;28;20131;-87
2024/01/18 01:14:07;;;;;;;1999.90;999.90;;;;;;;;;;5080804;28;20078;-89
2024/01/18 01:16:34;;;;;;;1999.90;999.90;;;;;;;;;;5078017;28;20051;-87
2024/01/18 01:19:00;;;;;;;1999.90;999.90;;;;;;;;;;5079795;28;20490;-88
2024/01/18 01:21:27;;;;;;;1999.90;999.90;;;;;;;;;;5062558;28;20048;-87
2024/01/18 01:23:56;;;;;;;1999.90;999.90;;;;;;;;;;5076707;28;20045;-87
2024/01/18 01:26:22;;;;;;;1999.90;999.90;;;;;;;;;;5076890;28;20445;-90
2024/01/18 01:28:49;;;;;;;1999.90;999.90;;;;;;;;;;5075328;28;20412;-87
2024/01/18 01:31:17;;;;;;;1999.90;999.90;;;;;;;;;;5076682;28;20066;-90
2024/01/18 01:33:44;;;;;;;1999.90;999.90;;;;;;;;;;5070548;28;20131;-87
2024/01/18 01:36:11;;;;;;;1999.90;999.90;;;;;;;;;;5081227;28;20048;-87
2024/01/18 01:38:38;;;;;;;1999.90;999.90;;;;;;;;;;5077624;28;20048;-88
2024/01/18 01:41:04;;;;;;;1999.90;999.90;;;;;;;;;;5074815;28;20045;-88
2024/01/18 01:43:31;;;;;;;1999.90;999.90;;;;;;;;;;5076921;28;20074;-86
2024/01/18 01:45:58;;;;;;;1999.90;999.90;;;;;;;;;;5077035;28;20497;-87
2024/01/18 01:48:26;;;;;;;1999.90;999.90;;;;;;;;;;5079988;28;20420;-87
2024/01/18 01:50:58;;;;;;;1999.90;999.90;;;;;;;;;;5073222;28;20056;-87
2024/01/18 01:53:24;;;;;;;1999.90;999.90;;;;;;;;;;5079721;28;20415;-87
2024/01/18 01:55:51;;;;;;;1999.90;999.90;;;;;;;;;;5081016;28;20042;-87
2024/01/18 01:58:18;;;;;;;1999.90;999.90;;;;;;;;;;5072527;28;20407;-87
2024/01/18 02:00:45;;;;;;;1999.90;999.90;;;;;;;;;;5072632;28;20049;-87
2024/01/18 02:03:12;;;;;;;1999.90;999.90;;;;;;;;;;5071666;28;20484;-88
2024/01/18 02:05:40;;;;;;;1999.90;999.90;;;;;;;;;;5066107;28;20404;-85
2024/01/18 02:08:07;;;;;;;1999.90;999.90;;;;;;;;;;5050614;28;20052;-89
2024/01/18 02:10:34;;;;;;;1999.90;999.90;;;;;;;;;;5052743;28;20045;-88
2024/01/18 02:13:00;;;;;;;1999.90;999.90;;;;;;;;;;5058889;28;20067;-87
2024/01/18 02:15:27;;;;;;;1999.90;999.90;;;;;;;;;;5048501;28;20486;-86
2024/01/18 02:17:54;;;;;;;1999.90;999.90;;;;;;;;;;5057601;28;20076;-86
2024/01/18 02:20:21;;;;;;;1999.90;999.90;;;;;;;;;;5061506;28;20049;-88
2024/01/18 02:22:49;;;;;;;1999.90;999.90;;;;;;;;;;5054107;28;20503;-87
2024/01/18 02:25:20;;;;;;;1999.90;999.90;;;;;;;;;;5059597;28;20131;-87
2024/01/18 02:27:47;;;;;;;1999.90;999.90;;;;;;;;;;5059022;28;20053;-89
2024/01/18 02:30:14;;;;;;;1999.90;999.90;;;;;;;;;;5055876;28;20141;-87
2024/01/18 02:32:40;;;;;;;1999.90;999.90;;;;;;;;;;5055374;28;20053;-87
2024/01/18 02:35:07;;;;;;;1999.90;999.90;;;;;;;;;;5056824;28;20057;-88
2024/01/18 02:37:34;;;;;;;1999.90;999.90;;;;;;;;;;5057650;28;20048;-87
2024/01/18 02:40:01;;;;;;;1999.90;999.90;;;;;;;;;;5057702;28;20040;-87
2024/01/18 02:42:29;;;;;;;1999.90;999.90;;;;;;;;;;5057339;28;20055;-87
2024/01/18 02:44:57;;;;;;;1999.90;999.90;;;;;;;;;;5051502;28;20044;-86
2024/01/18 02:47:24;;;;;;;1999.90;999.90;;;;;;;;;;5059752;28;20044;-87
2024/01/18 02:49:51;;;;;;;1999.90;999.90;;;;;;;;;;5059234;28;20507;-87
2024/01/18 02:52:18;;;;;;;1999.90;999.90;;;;;;;;;;5056498;28;20533;-88
2024/01/18 02:54:45;;;;;;;1999.90;999.90;;;;;;;;;;5059158;28;20053;-88
2024/01/18 02:57:11;;;;;;;1999.90;999.90;;;;;;;;;;5064410;28;20041;-87
2024/01/18 02:59:39;;;;;;;1999.90;999.90;;;;;;;;;;5055432;28;20049;-90
2024/01/18 03:02:06;;;;;;;1999.90;999.90;;;;;;;;;;5049618;28;20753;-88
2024/01/18 03:04:33;;;;;;;1999.90;999.90;;;;;;;;;;5053735;28;20049;-87
2024/01/18 03:06:59;;;;;;;1999.90;999.90;;;;;;;;;;5056896;28;20504;-87
2024/01/18 03:09:26;;;;;;;1999.90;999.90;;;;;;;;;;5057814;28;20539;-88
2024/01/18 03:11:52;;;;;;;1999.90;999.90;;;;;;;;;;5065467;28;20044;-88
2024/01/18 03:14:20;;;;;;;1999.90;999.90;;;;;;;;;;5047408;28;20049;-87
2024/01/18 03:16:48;;;;;;;1999.90;999.90;;;;;;;;;;5062729;28;20057;-87
2024/01/18 03:19:15;;;;;;;1999.90;999.90;;;;;;;;;;5059221;28;20056;-87
2024/01/18 03:21:41;;;;;;;1999.90;999.90;;;;;;;;;;5063888;28;20052;-88
2024/01/18 03:24:08;;;;;;;1999.90;999.90;;;;;;;;;;5050937;28;20057;-89
2024/01/18 03:26:34;;;;;;;1999.90;999.90;;;;;;;;;;5055105;28;20048;-88
2024/01/18 03:29:01;;;;;;;1999.90;999.90;;;;;;;;;;5055628;28;20136;-87
2024/01/18 03:31:27;;;;;;;1999.90;999.90;;;;;;;;;;5050447;28;20049;-88
2024/01/18 03:33:55;;;;;;;1999.90;999.90;;;;;;;;;;5066985;28;20154;-87
2024/01/18 03:36:22;;;;;;;1999.90;999.90;;;;;;;;;;5058391;28;20068;-87
2024/01/18 03:38:48;;;;;;;1999.90;999.90;;;;;;;;;;5062724;28;20044;-89
2024/01/18 03:41:16;;;;;;;1999.90;999.90;;;;;;;;;;5054840;28;20048;-87
2024/01/18 03:43:42;;;;;;;1999.90;999.90;;;;;;;;;;5050078;28;20055;-86
2024/01/18 03:46:13;;;;;;;1999.90;999.90;;;;;;;;;;5053634;28;20045;-86
2024/01/18 03:48:45;;;;;;;1999.90;999.90;;;;;;;;;;5065610;28;20048;-87
2024/01/18 03:51:13;;;;;;;1999.90;999.90;;;;;;;;;;5050741;28;20052;-87
2024/01/18 03:53:43;;;;;;;1999.90;999.90;;;;;;;;;;5054835;28;20043;-87
2024/01/18 03:56:11;;;;;;;1999.90;999.90;;;;;;;;;;5061145;28;20056;-87
2024/01/18 03:58:38;;;;;;;1999.90;999.90;;;;;;;;;;5061060;28;20049;-91
2024/01/18 04:01:04;;;;;;;1999.90;999.90;;;;;;;;;;5058190;28;20037;-88
2024/01/18 04:03:31;;;;;;;1999.90;999.90;;;;;;;;;;5062561;28;20055;-89
2024/01/18 04:05:57;;;;;;;1999.90;999.90;;;;;;;;;;5076522;28;20051;-88
2024/01/18 04:08:25;;;;;;;1999.90;999.90;;;;;;;;;;5081770;28;20054;-89
2024/01/18 04:10:52;;;;;;;1999.90;999.90;;;;;;;;;;5080965;28;20052;-88
2024/01/18 04:13:19;;;;;;;1999.90;999.90;;;;;;;;;;5087587;28;20044;-87
2024/01/18 04:15:45;;;;;;;1999.90;999.90;;;;;;;;;;5079337;28;20059;-87
2024/01/18 04:18:12;;;;;;;1999.90;999.90;;;;;;;;;;5080456;28;20454;-86
2024/01/18 04:20:45;;;;;;;1999.90;999.90;;;;;;;;;;5078517;28;20041;-87
2024/01/18 04:23:11;;;;;;;1999.90;999.90;;;;;;;;;;5073590;28;20119;-87
2024/01/18 04:25:39;;;;;;;1999.90;999.90;;;;;;;;;;5073768;28;20485;-87
2024/01/18 04:28:06;;;;;;;1999.90;999.90;;;;;;;;;;5077713;28;20049;-87
2024/01/18 04:30:32;;;;;;;1999.90;999.90;;;;;;;;;;5083322;28;20040;-88
2024/01/18 04:32:59;;;;;;;1999.90;999.90;;;;;;;;;;5083876;28;20064;-86
2024/01/18 04:35:26;;;;;;;1999.90;999.90;;;;;;;;;;5080964;28;20048;-86
2024/01/18 04:37:52;;;;;;;1999.90;999.90;;;;;;;;;;5080775;28;20047;-89
2024/01/18 04:40:19;;;;;;;1999.90;999.90;;;;;;;;;;5083372;28;20052;-87
2024/01/18 04:42:47;;;;;;;1999.90;999.90;;;;;;;;;;5077489;28;20048;-86
2024/01/18 04:45:13;;;;;;;1999.90;999.90;;;;;;;;;;5077218;28;20048;-87
2024/01/18 04:47:41;;;;;;;1999.90;999.90;;;;;;;;;;5079337;28;20051;-89
2024/01/18 04:50:12;;;;;;;1999.90;999.90;;;;;;;;;;5074894;28;20052;-88
2024/01/18 04:52:41;;;;;;;1999.90;999.90;;;;;;;;;;5071029;28;20041;-88
2024/01/18 04:55:09;;;;;;;1999.90;999.90;;;;;;;;;;5080288;28;20109;-88
2024/01/18 04:57:36;;;;;;;1999.90;999.90;;;;;;;;;;5078277;28;20090;-88
2024/01/18 05:00:09;;;;;;;1999.90;999.90;;;;;;;;;;5077626;28;20075;-87
2024/01/18 05:02:36;;;;;;;1999.90;999.90;;;;;;;;;;5073216;28;20508;-89
2024/01/18 05:05:02;;;;;;;1999.90;999.90;;;;;;;;;;5060114;28;21026;-87
2024/01/18 05:07:29;;;;;;;1999.90;999.90;;;;;;;;;;5074676;28;20485;-89
2024/01/18 05:09:57;;;;;;;1999.90;999.90;;;;;;;;;;5077773;28;20048;-88
2024/01/18 05:12:24;;;;;;;1999.90;999.90;;;;;;;;;;5073685;28;20045;-88
2024/01/18 05:14:50;;;;;;;1999.90;999.90;;;;;;;;;;5068675;28;20041;-88
2024/01/18 05:17:21;;;;;;;1999.90;999.90;;;;;;;;;;5077753;28;20140;-88
2024/01/18 05:19:52;;;;;;;1999.90;999.90;;;;;;;;;;5079213;28;20052;-89
2024/01/18 05:22:19;;;;;;;1999.90;999.90;;;;;;;;;;5068021;28;20047;-87
2024/01/18 05:24:46;;;;;;;1999.90;999.90;;;;;;;;;;5075660;28;20455;-87
2024/01/18 05:27:13;;;;;;;1999.90;999.90;;;;;;;;;;5080279;28;20135;-85
2024/01/18 05:29:39;;;;;;;1999.90;999.90;;;;;;;;;;5085756;28;20044;-86
2024/01/18 05:32:09;;;;;;;1999.90;999.90;;;;;;;;;;5074722;28;20124;-88
2024/01/18 05:34:37;;;;;;;1999.90;999.90;;;;;;;;;;5065097;28;20097;-88
2024/01/18 05:37:04;;;;;;;1999.90;999.90;;;;;;;;;;5075999;28;20077;-87
2024/01/18 05:39:30;;;;;;;1999.90;999.90;;;;;;;;;;5072730;28;20052;-87
2024/01/18 05:41:57;;;;;;;1999.90;999.90;;;;;;;;;;5068478;28;20058;-88
2024/01/18 05:44:23;;;;;;;1999.90;999.90;;;;;;;;;;5076747;28;20510;-87
2024/01/18 05:46:51;;;;;;;1999.90;999.90;;;;;;;;;;5078958;28;20495;-88
2024/01/18 05:49:30;;;;;;;1999.90;999.90;;;;;;;;;;5064016;28;20097;-90
2024/01/18 05:51:58;;;;;;;1999.90;999.90;;;;;;;;;;5076761;28;20531;-87
2024/01/18 05:54:24;;;;;;;1999.90;999.90;;;;;;;;;;5074816;28;20094;-87
2024/01/18 05:56:51;;;;;;;1999.90;999.90;;;;;;;;;;5076611;28;20052;-86
2024/01/18 05:59:18;;;;;;;1999.90;999.90;;;;;;;;;;5070011;28;20664;-87
2024/01/18 06:01:44;;;;;;;1999.90;999.90;;;;;;;;;;5064358;28;20052;-86
2024/01/18 06:04:11;;;;;;;1999.90;999.90;;;;;;;;;;5067067;28;20060;-87
2024/01/18 06:06:37;;;;;;;1999.90;999.90;;;;;;;;;;5041784;28;20045;-87
2024/01/18 06:09:05;;;;;;;1999.90;999.90;;;;;;;;;;5055747;28;20059;-86
2024/01/18 06:11:32;;;;;;;1999.90;999.90;;;;;;;;;;5053069;28;20056;-88
2024/01/18 06:13:58;;;;;;;1999.90;999.90;;;;;;;;;;5044765;28;20512;-86
2024/01/18 06:16:25;;;;;;;1999.90;999.90;;;;;;;;;;5059733;28;20055;-86
2024/01/18 06:18:58;;;;;;;1999.90;999.90;;;;;;;;;;5051983;28;20045;-86
2024/01/18 06:21:24;;;;;;;1999.90;999.90;;;;;;;;;;5055006;28;20056;-88
2024/01/18 06:23:51;;;;;;;1999.90;999.90;;;;;;;;;;5053425;28;20087;-86
2024/01/18 06:26:19;;;;;;;1999.90;999.90;;;;;;;;;;5054386;28;20068;-87
2024/01/18 06:28:45;;;;;;;1999.90;999.90;;;;;;;;;;5058436;28;20051;-86
2024/01/18 06:31:13;;;;;;;1999.90;999.90;;;;;;;;;;5054441;28;20055;-89
2024/01/18 06:33:40;;;;;;;1999.90;999.90;;;;;;;;;;5067882;28;20072;-89
2024/01/18 06:36:08;;;;;;;1999.90;999.90;;;;;;;;;;5057696;28;20051;-86
2024/01/18 06:38:35;;;;;;;1999.90;999.90;;;;;;;;;;5050549;28;20044;-87
2024/01/18 06:41:01;;;;;;;1999.90;999.90;;;;;;;;;;5049642;28;20056;-87
2024/01/18 06:43:29;;;;;;;1999.90;999.90;;;;;;;;;;5049742;28;20150;-86
2024/01/18 06:45:56;;;;;;;1999.90;999.90;;;;;;;;;;5059921;28;20055;-86
2024/01/18 06:48:23;;;;;;;1999.90;999.90;;;;;;;;;;5061251;28;20156;-87
2024/01/18 06:51:02;;;;;;;1999.90;999.90;;;;;;;;;;5061381;28;20049;-87
2024/01/18 06:53:28;;;;;;;1999.90;999.90;;;;;;;;;;5058663;28;20067;-86
2024/01/18 06:55:55;;;;;;;1999.90;999.90;;;;;;;;;;5059475;28;20055;-86
2024/01/18 06:58:21;;;;;;;1999.90;999.90;;;;;;;;;;5067945;28;20041;-86
2024/01/18 07:00:49;;;;;;;1999.90;999.90;;;;;;;;;;5058733;28;20045;-87
2024/01/18 07:03:15;;;;;;;1999.90;999.90;;;;;;;;;;5062647;28;20044;-87
2024/01/18 07:05:42;;;;;;;1999.90;999.90;;;;;;;;;;5082982;28;20134;-88
2024/01/18 07:08:10;;;;;;;1999.90;999.90;;;;;;;;;;5081031;28;20051;-86
2024/01/18 07:10:36;;;;;;;1999.90;999.90;;;;;;;;;;5077361;28;20054;-87
2024/01/18 07:13:03;;;;;;;1999.90;999.90;;;;;;;;;;5078984;28;20048;-86
2024/01/18 07:15:30;;;;;;;1999.90;999.90;;;;;;;;;;5081396;28;20048;-86
2024/01/18 07:17:58;;;;;;;1999.90;999.90;;;;;;;;;;5080000;28;20757;-86
2024/01/18 07:20:27;;;;;;;1999.90;999.90;;;;;;;;;;5087533;28;20091;-86
2024/01/18 07:22:54;;;;;;;1999.90;999.90;;;;;;;;;;5082733;28;20063;-88
2024/01/18 07:25:21;;;;;;;1999.90;999.90;;;;;;;;;;5077009;28;20048;-86
2024/01/18 07:27:48;;;;;;;1999.90;999.90;;;;;;;;;;5078049;28;20048;-86
2024/01/18 07:30:15;;;;;;;1999.90;999.90;;;;;;;;;;5079377;28;20048;-88
2024/01/18 07:32:43;;;;;;;1999.90;999.90;;;;;;;;;;5080261;28;20056;-86
2024/01/18 07:35:13;;;;;;;1999.90;999.90;;;;;;;;;;5082858;28;20139;-88
2024/01/18 07:37:39;;;;;;;1999.90;999.90;;;;;;;;;;5085322;28;20052;-86
2024/01/18 07:40:07;;;;;;;1999.90;999.90;;;;;;;;;;5075477;28;20047;-87
2024/01/18 07:42:34;;;;;;;1999.90;999.90;;;;;;;;;;5078847;28;20054;-87
2024/01/18 07:45:00;;;;;;;1999.90;999.90;;;;;;;;;;5078173;28;20053;-89
2024/01/18 07:47:27;;;;;;;1999.90;999.90;;;;;;;;;;5075128;28;20056;-87
2024/01/18 07:50:00;;;;;;;1999.90;999.90;;;;;;;;;;5077112;28;20308;-86
2024/01/18 07:52:28;;;;;;;1999.90;999.90;;;;;;;;;;5076900;28;20048;-86
2024/01/18 07:54:54;;;;;;;1999.90;999.90;;;;;;;;;;5076346;28;20420;-87
2024/01/18 07:57:21;;;;;;;1999.90;999.90;;;;;;;;;;5078308;28;20047;-88
2024/01/18 07:59:47;;;;;;;1999.90;999.90;;;;;;;;;;5084072;28;20044;-88
2024/01/18 08:02:14;;;;;;;1999.90;999.90;;;;;;;;;;5076908;28;20049;-87
2024/01/18 08:04:40;;;;;;;1999.90;999.90;;;;;;;;;;5069654;28;20402;-88
2024/01/18 08:07:07;;;;;;;1999.90;999.90;;;;;;;;;;5073963;28;20055;-87
2024/01/18 08:09:37;;;;;;;1999.90;999.90;;;;;;;;;;5073654;28;20049;-89
2024/01/18 08:12:05;;;;;;;1999.90;999.90;;;;;;;;;;5074044;28;20519;-87
2024/01/18 08:14:31;;;;;;;1999.90;999.90;;;;;;;;;;5068808;28;20443;-87
2024/01/18 08:16:58;;;;;;;1999.90;999.90;;;;;;;;;;5080661;28;20063;-90
2024/01/18 08:19:30;;;;;;;1999.90;999.90;;;;;;;;;;5082588;28;20056;-86
2024/01/18 08:21:56;;;;;;;1999.90;999.90;;;;;;;;;;5074410;28;20053;-87
2024/01/18 08:24:23;;;;;;;1999.90;999.90;;;;;;;;;;5076037;28;20127;-86
2024/01/18 08:26:50;;;;;;;1999.90;999.90;;;;;;;;;;5073865;28;20056;-89
2024/01/18 08:29:16;;;;;;;1999.90;999.90;;;;;;;;;;5074746;28;20703;-88
2024/01/18 08:31:42;;;;;;;1999.90;999.90;;;;;;;;;;5082119;28;20060;-88
2024/01/18 08:34:09;;;;;;;1999.90;999.90;;;;;;;;;;5058339;28;20049;-86
2024/01/18 08:36:37;;;;;;;1999.90;999.90;;;;;;;;;;5082803;28;20082;-89
2024/01/18 08:39:03;;;;;;;1999.90;999.90;;;;;;;;;;5080648;28;20396;-89
2024/01/18 08:41:30;;;;;;;1999.90;999.90;;;;;;;;;;5084087;28;20048;-87
2024/01/18 08:43:58;;;;;;;1999.90;999.90;;;;;;;;;;5084379;28;20063;-91
2024/01/18 08:46:26;;;;;;;1999.90;999.90;;;;;;;;;;5086095;28;20477;-90
2024/01/18 08:48:56;;;;;;;1999.90;999.90;;;;;;;;;;5080786;28;20045;-90
2024/01/18 08:51:24;;;;;;;1999.90;999.90;;;;;;;;;;5072072;28;20504;-87
2024/01/18 08:53:50;;;;;;;1999.90;999.90;;;;;;;;;;5074293;28;20121;-90
2024/01/18 08:56:17;;;;;;;1999.90;999.90;;;;;;;;;;5074433;28;20058;-89
2024/01/18 08:58:44;;;;;;;1999.90;999.90;;;;;;;;;;5081549;28;20045;-87
2024/01/18 09:01:12;;;;;;;1999.90;999.90;;;;;;;;;;5086500;28;20075;-87
2024/01/18 09:03:39;;;;;;;1999.90;999.90;;;;;;;;;;5077520;28;20056;-87
2024/01/18 09:06:07;;;;;;;1999.90;999.90;;;;;;;;;;5076396;28;20139;-91
2024/01/18 09:08:34;;;;;;;1999.90;999.90;;;;;;;;;;5073412;28;20606;-90
2024/01/18 09:11:00;;;;;;;1999.90;999.90;;;;;;;;;;5065413;28;20489;-89
2024/01/18 09:13:27;;;;;;;1999.90;999.90;;;;;;;;;;5073212;28;20053;-88
2024/01/18 09:15:53;;;;;;;1999.90;999.90;;;;;;;;;;5066227;28;20052;-90
2024/01/18 09:18:21;;;;;;;1999.90;999.90;;;;;;;;;;5072170;28;20573;-89
2024/01/18 09:20:48;;;;;;;1999.90;999.90;;;;;;;;;;5073266;28;20722;-90
2024/01/18 09:23:15;;;;;;;1999.90;999.90;;;;;;;;;;5080364;28;20098;-89
2024/01/18 09:25:42;;;;;;;1999.90;999.90;;;;;;;;;;5077634;28;20390;-88
2024/01/18 09:28:09;;;;;;;1999.90;999.90;;;;;;;;;;5074414;28;20066;-87
2024/01/18 09:30:36;;;;;;;1999.90;999.90;;;;;;;;;;5073021;28;20120;-88
2024/01/18 09:33:03;;;;;;;1999.90;999.90;;;;;;;;;;5071536;28;20048;-90
2024/01/18 09:35:31;;;;;;;1999.90;999.90;;;;;;;;;;5073954;28;20055;-90
2024/01/18 09:37:58;;;;;;;1999.90;999.90;;;;;;;;;;5077381;28;20253;-89
2024/01/18 09:40:27;;;;;;;1999.90;999.90;;;;;;;;;;5068424;28;20060;-88
2024/01/18 09:42:54;;;;;;;1999.90;999.90;;;;;;;;;;5070109;28;20379;-91
2024/01/18 09:45:24;;;;;;;1999.90;999.90;;;;;;;;;;5076298;28;20080;-89
2024/01/18 09:47:53;;;;;;;1999.90;999.90;;;;;;;;;;5074112;28;20044;-88
2024/01/18 09:50:20;;;;;;;1999.90;999.90;;;;;;;;;;5080514;28;20138;-88
2024/01/18 09:52:49;;;;;;;1999.90;999.90;;;;;;;;;;5075777;28;20044;-88
2024/01/18 09:55:16;;;;;;;1999.90;999.90;;;;;;;;;;5073157;28;20485;-87
2024/01/18 09:57:48;;;;;;;1999.90;999.90;;;;;;;;;;5083163;28;20489;-89
2024/01/18 10:00:16;;;;;;;1999.90;999.90;;;;;;;;;;5085969;28;20051;-89
2024/01/18 10:02:43;;;;;;;1999.90;999.90;;;;;;;;;;5085813;28;20048;-87
2024/01/18 10:05:13;;;;;;;1999.90;999.90;;;;;;;;;;5075380;28;20059;-86
2024/01/18 10:07:40;;;;;;;1999.90;999.90;;;;;;;;;;5078068;28;20132;-90
2024/01/18 10:10:12;;;;;;;1999.90;999.90;;;;;;;;;;5084611;28;20066;-89
2024/01/18 10:12:41;;;;;;;1999.90;999.90;;;;;;;;;;5075256;28;20064;-89
2024/01/18 10:15:07;;;;;;;1999.90;999.90;;;;;;;;;;5076656;28;20054;-89
2024/01/18 10:17:34;;;;;;;1999.90;999.90;;;;;;;;;;5075791;28;20045;-89
2024/01/18 10:20:01;;;;;;;1999.90;999.90;;;;;;;;;;5074620;28;20102;-89
2024/01/18 10:22:28;;;;;;;1999.90;999.90;;;;;;;;;;5084541;28;20041;-87
2024/01/18 10:24:55;;;;;;;1999.90;999.90;;;;;;;;;;5083480;28;20059;-88
2024/01/18 10:27:23;;;;;;;1999.90;999.90;;;;;;;;;;5083327;28;20052;-90
2024/01/18 10:29:50;;;;;;;1999.90;999.90;;;;;;;;;;5083040;28;20546;-91
2024/01/18 10:32:17;;;;;;;1999.90;999.90;;;;;;;;;;5078575;28;20086;-91
2024/01/18 10:34:44;;;;;;;1999.90;999.90;;;;;;;;;;5080113;28;20040;-89
2024/01/18 10:37:15;;;;;;;1999.90;999.90;;;;;;;;;;5079732;28;20048;-88
2024/01/18 10:39:43;;;;;;;1999.90;999.90;;;;;;;;;;5078860;28;20049;-91
2024/01/18 10:42:10;;;;;;;1999.90;999.90;;;;;;;;;;5090747;28;20074;-91
2024/01/18 10:44:42;;;;;;;1999.90;999.90;;;;;;;;;;5083752;28;20474;-89
2024/01/18 10:47:10;;;;;;;1999.90;999.90;;;;;;;;;;5068723;28;20485;-90
2024/01/18 10:49:37;;;;;;;1999.90;999.90;;;;;;;;;;5085677;28;20044;-85
2024/01/18 10:52:04;;;;;;;1999.90;999.90;;;;;;;;;;5084550;28;20051;-87
2024/01/18 10:54:31;;;;;;;1999.90;999.90;;;;;;;;;;5078597;28;20093;-88
2024/01/18 10:56:59;;;;;;;1999.90;999.90;;;;;;;;;;5080829;28;20047;-90
2024/01/18 10:59:26;;;;;;;1999.90;999.90;;;;;;;;;;5082178;28;20045;-88
2024/01/18 11:01:55;;;;;;;1999.90;999.90;;;;;;;;;;5075811;28;20178;-89
2024/01/18 11:04:21;;;;;;;1999.90;999.90;;;;;;;;;;5081968;28;20171;-91
2024/01/18 11:06:48;;;;;;;1999.90;999.90;;;;;;;;;;5072104;28;20083;-89
2024/01/18 11:09:15;;;;;;;1999.90;999.90;;;;;;;;;;5082233;28;20063;-92
2024/01/18 11:11:42;;;;;;;1999.90;999.90;;;;;;;;;;5078867;28;20489;-88
2024/01/18 11:14:09;;;;;;;1999.90;999.90;;;;;;;;;;5079327;28;20055;-91
2024/01/18 11:16:38;;;;;;;1999.90;999.90;;;;;;;;;;5082666;28;20049;-91
2024/01/18 11:19:06;;;;;;;1999.90;999.90;;;;;;;;;;5081867;28;20062;-93
2024/01/18 11:21:39;;;;;;;1999.90;999.90;;;;;;;;;;5084341;28;20051;-89
2024/01/18 11:24:07;;;;;;;1999.90;999.90;;;;;;;;;;5089604;28;20048;-91
2024/01/18 11:26:34;;;;;;;1999.90;999.90;;;;;;;;;;5084330;28;20048;-89
2024/01/18 11:29:18;;;;;;;1999.90;999.90;;;;;;;;;;5085734;28;20411;-92
2024/01/18 11:31:46;;;;;;;1999.90;999.90;;;;;;;;;;5073060;28;20106;-90
2024/01/18 11:34:25;;;;;;;1999.90;999.90;;;;;;;;;;5090956;28;20048;-90
2024/01/18 11:36:52;;;;;;;1999.90;999.90;;;;;;;;;;5074167;28;20037;-88
2024/01/18 11:39:55;;;;;;;1999.90;999.90;;;;;;;;;;5078479;28;20049;-86
2024/01/18 11:42:24;;;;;;;1999.90;999.90;;;;;;;;;;5088415;28;20085;-90
2024/01/18 11:44:54;;;;;;;1999.90;999.90;;;;;;;;;;5084115;28;20094;-88
2024/01/18 11:47:21;;;;;;;1999.90;999.90;;;;;;;;;;5079807;28;20524;-84
2024/01/18 11:50:07;;;;;;;1999.90;999.90;;;;;;;;;;5077669;28;20043;-86
2024/01/18 11:52:35;;;;;;;1999.90;999.90;;;;;;;;;;5074719;28;20048;-86
2024/01/18 11:55:02;;;;;;;1999.90;999.90;;;;;;;;;;5078931;28;20473;-87
2024/01/18 11:57:29;;;;;;;1999.90;999.90;;;;;;;;;;5076611;28;20040;-88
2024/01/18 11:59:56;;;;;;;1999.90;999.90;;;;;;;;;;5086118;28;20122;-92
2024/01/18 12:02:24;;;;;;;1999.90;999.90;;;;;;;;;;5083537;28;20052;-87
2024/01/18 12:04:51;;;;;;;1999.90;999.90;;;;;;;;;;5080065;28;20075;-87
2024/01/18 12:07:20;;;;;;;1999.90;999.90;;;;;;;;;;5080162;28;20040;-85
2024/01/18 12:09:46;;;;;;;1999.90;999.90;;;;;;;;;;5071872;28;20047;-87
2024/01/18 12:12:14;;;;;;;1999.90;999.90;;;;;;;;;;5076842;28;20148;-87
2024/01/18 12:14:42;;;;;;;1999.90;999.90;;;;;;;;;;5079605;28;20051;-87
2024/01/18 12:17:09;;;;;;;1999.90;999.90;;;;;;;;;;5088369;28;20055;-84
2024/01/18 12:19:37;;;;;;;1999.90;999.90;;;;;;;;;;5068336;28;20059;-89
2024/01/18 12:22:07;;;;;;;1999.90;999.90;;;;;;;;;;5093388;28;20110;-92
2024/01/18 12:24:35;;;;;;;1999.90;999.90;;;;;;;;;;5092807;28;20051;-93
2024/01/18 12:27:02;;;;;;;1999.90;999.90;;;;;;;;;;5078461;28;20052;-91
2024/01/18 12:29:31;;;;;;;1999.90;999.90;;;;;;;;;;5080013;28;20114;-85
2024/01/18 12:31:58;;;;;;;1999.90;999.90;;;;;;;;;;5090437;28;20044;-87
2024/01/18 12:34:25;;;;;;;1999.90;999.90;;;;;;;;;;5082718;28;20508;-89
2024/01/18 12:36:52;;;;;;;1999.90;999.90;;;;;;;;;;5090339;28;20044;-88
2024/01/18 12:39:19;;;;;;;1999.90;999.90;;;;;;;;;;5089622;28;20447;-87
2024/01/18 12:41:47;;;;;;;1999.90;999.90;;;;;;;;;;5078541;28;20049;-87
2024/01/18 12:44:14;;;;;;;1999.90;999.90;;;;;;;;;;5073882;28;20049;-84
2024/01/18 12:46:41;;;;;;;1999.90;999.90;;;;;;;;;;5081302;28;20040;-86
2024/01/18 12:49:13;;;;;;;1999.90;999.90;;;;;;;;;;5082026;28;20045;-87
2024/01/18 12:51:39;;;;;;;1999.90;999.90;;;;;;;;;;5071814;28;20043;-91
2024/01/18 12:54:07;;;;;;;1999.90;999.90;;;;;;;;;;5074905;28;20489;-90
2024/01/18 12:56:35;;;;;;;1999.90;999.90;;;;;;;;;;5066096;28;20072;-87
2024/01/18 12:59:09;;;;;;;1999.90;999.90;;;;;;;;;;5070974;28;20070;-88
2024/01/18 13:01:35;;;;;;;1999.90;999.90;;;;;;;;;;5079252;28;20044;-86
2024/01/18 13:04:12;;;;;;;1999.90;999.90;;;;;;;;;;5071583;28;20048;-85
2024/01/18 13:06:39;;;;;;;1999.90;999.90;;;;;;;;;;5072373;28;20045;-88
2024/01/18 13:09:06;;;;;;;1999.90;999.90;;;;;;;;;;5077659;28;20044;-86
2024/01/18 13:11:33;;;;;;;1999.90;999.90;;;;;;;;;;5083195;28;20051;-88
2024/01/18 13:14:00;;;;;;;1999.90;999.90;;;;;;;;;;5090402;28;20052;-89
2024/01/18 13:16:28;;;;;;;1999.90;999.90;;;;;;;;;;5079863;28;20079;-88
2024/01/18 13:19:00;;;;;;;1999.90;999.90;;;;;;;;;;5083393;28;20062;-88
2024/01/18 13:21:27;;;;;;;1999.90;999.90;;;;;;;;;;5077781;28;20054;-88
2024/01/18 13:23:53;;;;;;;1999.90;999.90;;;;;;;;;;5073923;28;20076;-85
2024/01/18 13:26:20;;;;;;;1999.90;999.90;;;;;;;;;;5075433;28;20128;-85
2024/01/18 13:28:46;;;;;;;1999.90;999.90;;;;;;;;;;5072357;28;20051;-87
2024/01/18 13:31:13;;;;;;;1999.90;999.90;;;;;;;;;;5072935;28;20041;-85
2024/01/18 13:33:41;;;;;;;1999.90;999.90;;;;;;;;;;5075981;28;20037;-85
2024/01/18 13:36:08;;;;;;;1999.90;999.90;;;;;;;;;;5085512;28;20044;-85
2024/01/18 13:38:35;;;;;;;1999.90;999.90;;;;;;;;;;5079617;28;20049;-86
2024/01/18 13:41:02;;;;;;;1999.90;999.90;;;;;;;;;;5067837;28;20043;-85
2024/01/18 13:43:28;;;;;;;1999.90;999.90;;;;;;;;;;5079614;28;20048;-85